• Join FlightAware (Why Join?)
  • Login
  • US Flag 
11:44PM EST


 

Airport Tracker/Info


-or-


 

Live Flight TrackerFlight Track Log ✈ AWI3551 ✈ 27-Jun-2013 ✈ KBUF - KPHL

Flight Track Log - Related Links

Times and Time Zones

All times are in EDT time to prevent confusion due to time zone crossing. See the AWI3551 flight status page for this flight to view local times or setup timezone preferences in your user account.

Time Position Orientation Groundspeed Altitude Reporting Facility
EDT Latitude Longitude Course Direction KTS MPH feet Rate Location/Type
05:37AM 42.9333 -78.7500 174° South 163 188 1,400  Level Buffalo TRACON
05:39AM 42.8339 -78.7825 193° South 237 273 4,700 1,620 Climbing Cleveland Center
05:40AM 42.5045 -78.6619 173° South  Level FlightAware Approximate
05:40AM 42.7564 -78.7650 171° South 257 296 6,300  Level Cleveland Center
05:41AM 42.4105 -78.6500 180° South  Level FlightAware Approximate
05:41AM 42.6747 -78.7447 170° South 273 314 8,900  Level Cleveland Center
05:42AM 42.3163 -78.6428 174° South  Level FlightAware Approximate
05:42AM 42.5994 -78.7272 170° South 283 326 10,500  Level Cleveland Center
05:43AM 42.5139 -78.7100 172° South 283 326 12,300 1,800 Climbing Cleveland Center
05:44AM 42.4281 -78.6900 170° South 303 349 14,200 1,800 Climbing Cleveland Center
05:45AM 42.3361 -78.6731 172° South 323 372 15,900 1,500 Climbing Cleveland Center
05:46AM 42.2439 -78.6506 170° South 336 387 17,300 1,380 Climbing Cleveland Center
05:47AM 42.1539 -78.6311 171° South 349 402 18,700 1,500 Climbing Cleveland Center
05:48AM 42.0558 -78.6228 176° South 349 402 20,300 1,260 Climbing Cleveland Center
05:49AM 41.9558 -78.6258 181° South 349 402 21,300 960 Climbing Cleveland Center
05:50AM 41.8578 -78.6206 178° South 354 407 22,300 840 Climbing Cleveland Center
05:51AM 41.7594 -78.6011 172° South 354 407 23,000 300 Climbing Cleveland Center
05:52AM 41.6644 -78.5319 151° Southeast 360 414 23,000  Level Cleveland Center
05:53AM 41.5650 -78.4600 152° Southeast 381 438 23,000  Level Cleveland Center
05:54AM 41.4617 -78.3858 152° Southeast 400 460 23,000  Level Cleveland Center
05:55AM 41.3331 -78.2925 151° Southeast 428 493 23,000  Level New York Center
05:56AM 41.2294 -78.2175 151° Southeast 428 493 23,000  Level New York Center
05:57AM 41.1258 -78.1425 151° Southeast 428 493 23,000  Level New York Center
05:58AM 41.0200 -78.0678 152° Southeast 428 493 23,000  Level New York Center
05:59AM 40.9164 -77.9908 151° Southeast 428 493 23,000 -540 Level New York Center
06:00AM 40.8378 -77.8756 132° Southeast 423 487 22,000 -1,020 Descending New York Center
06:01AM 40.7594 -77.7578 131° Southeast 423 487 21,000 -1,020 Descending New York Center
06:02AM 40.6828 -77.6403 131° Southeast 428 493 20,000 -1,020 Descending New York Center
06:03AM 40.5983 -77.5144 131° Southeast 418 481 19,000 -540 Descending New York Center
06:04AM 40.5289 -77.4147 132° Southeast 413 475 19,000  Level New York Center
06:05AM 40.4658 -77.2750 121° Southeast 408 470 19,000  Level New York Center
06:06AM 40.4356 -77.1439 107° East 408 470 19,000  Level New York Center
06:07AM 40.3958 -76.9875 108° East 413 475 19,000 -120 Level New York Center
06:08AM 40.3597 -76.8397 108° East 418 481 18,800 -900 Descending New York Center
06:09AM 40.3253 -76.6953 107° East 418 481 17,200 -1,560 Descending New York Center
06:10AM 40.2906 -76.5589 108° East 413 475 15,700 -1,500 Descending New York Center
06:11AM 40.2589 -76.4367 109° East 407 468 14,300 -1,380 Descending New York Center
06:12AM 40.2236 -76.3031 109° East 394 453 12,900 -1,560 Descending New York Center
06:13AM 40.1939 -76.1783 107° East 370 426 11,300 -1,680 Descending New York Center
06:14AM 40.1619 -76.0536 108° East 338 389 9,700 -1,500 Descending New York Center
06:15AM 40.1369 -75.9622 110° East 306 352 8,300 -1,440 Descending New York Center
06:16AM 40.1100 -75.8597 109° East 296 341 6,800 -1,200 Descending New York Center
06:17AM 40.0856 -75.7522 107° East 291 335 6,000 -540 Descending New York Center
06:18AM 40.0831 -75.6569 92° East 291 335 5,800 -540 Descending New York Center
06:19AM 40.0625 -75.5497 104° East 282 325 5,000 -420 Descending New York Center
06:20AM 40.0369 -75.4586 110° East 282 325 5,000  Level New York Center
06:21AM 40.0097 -75.3564 109° East 282 325 5,000 -360 Level New York Center
06:22AM 39.9822 -75.2597 110° East 277 319 4,300 -540 Descending New York Center
06:23AM 39.9361 -75.2108 141° Southeast 219 252 4,000 -180 Descending New York Center
06:24AM 39.8833 -75.1833 158° South 209 241 4,000  Level Philadelphia TRACON
06:25AM 39.8333 -75.1500 153° Southeast 206 237 4,000  Level Philadelphia TRACON
06:26AM 39.7667 -75.1333 169° South 211 243 4,000 -480 Level Philadelphia TRACON
06:27AM 39.7333 -75.1500 201° Southwest 185 213 3,100 -960 Descending Philadelphia TRACON
06:28AM 39.7833 -75.1667 346° North 179 206 2,100 -960 Descending Philadelphia TRACON
06:29AM 39.8167 -75.2000 322° Northwest 136 157 1,400 -720 Descending Philadelphia TRACON
06:30AM 39.8500 -75.2167 339° North 145 167 900 180 Descending Philadelphia TRACON
06:31AM 39.8833 -75.2333 339° North 171 197 1,800 960 Climbing Philadelphia TRACON
06:32AM 39.9500 -75.2667 339° North 230 265 3,000 660 Climbing Philadelphia TRACON
06:33AM 40.0000 -75.2500 14° North 219 252 3,200 480 Climbing Philadelphia TRACON
06:34AM 39.9667 -75.2000 131° Southeast 236 272 4,000 420 Climbing Philadelphia TRACON
06:35AM 39.9000 -75.1667 159° South 206 237 4,000  Level Philadelphia TRACON
06:36AM 39.8500 -75.1333 153° Southeast 209 241 4,000 -300 Level Philadelphia TRACON
06:37AM 39.8000 -75.1000 153° Southeast 207 238 3,400 -720 Descending Philadelphia TRACON